Time;durP1;ratioP1;P1;durP2;ratioP2;P2;SDS_P1;SDS_P2;PMS_P1;PMS_P2;Temp;Humidity;BMP_temperature;BMP_pressure;BME280_temperature;BME280_humidity;BME280_pressure;Samples;Min_cycle;Max_cycle;Signal;HPM_P1;HPM_P2
2022/03/16 00:01:45;;;;;;;24.52;16.08;;;;;;;7.87;100.00;102506.03;5056202;28;20086;-69
2022/03/16 00:04:10;;;;;;;21.98;13.98;;;;;;;7.78;100.00;102501.19;5056522;28;20025;-69
2022/03/16 00:06:36;;;;;;;20.23;14.60;;;;;;;7.75;100.00;102501.91;5064285;28;20013;-69
2022/03/16 00:09:02;;;;;;;19.33;14.80;;;;;;;7.78;100.00;102498.56;5062399;28;20028;-69
2022/03/16 00:11:27;;;;;;;26.05;14.93;;;;;;;7.72;100.00;102501.75;5058548;28;20033;-70
2022/03/16 00:13:53;;;;;;;26.90;15.45;;;;;;;7.68;100.00;102505.03;5068181;28;20396;-69
2022/03/16 00:16:18;;;;;;;22.95;14.73;;;;;;;7.67;100.00;102497.09;5065746;28;20476;-70
2022/03/16 00:18:43;;;;;;;21.88;15.40;;;;;;;7.63;100.00;102506.47;5058117;28;20048;-69
2022/03/16 00:21:09;;;;;;;26.63;16.25;;;;;;;7.63;100.00;102500.34;5058265;28;20472;-69
2022/03/16 00:23:34;;;;;;;23.33;14.60;;;;;;;7.56;100.00;102504.34;5055041;28;20029;-69
2022/03/16 00:25:59;;;;;;;25.42;15.55;;;;;;;7.47;100.00;102507.34;5064661;28;20031;-69
2022/03/16 00:28:25;;;;;;;23.65;14.77;;;;;;;7.43;100.00;102513.22;5064434;28;20396;-69
2022/03/16 00:30:50;;;;;;;26.60;15.52;;;;;;;7.38;100.00;102510.34;5068187;28;20024;-69
2022/03/16 00:33:15;;;;;;;23.02;15.18;;;;;;;7.32;100.00;102509.09;5057218;28;20119;-69
2022/03/16 00:35:41;;;;;;;25.15;15.55;;;;;;;7.29;100.00;102501.97;5061220;28;20044;-69
2022/03/16 00:38:06;;;;;;;23.20;15.10;;;;;;;7.19;100.00;102507.47;5066533;28;20032;-69
2022/03/16 00:40:32;;;;;;;22.95;15.40;;;;;;;7.08;100.00;102505.16;5061389;28;20037;-69
2022/03/16 00:42:58;;;;;;;24.13;15.13;;;;;;;7.06;100.00;102504.16;5061212;28;20101;-69
2022/03/16 00:45:24;;;;;;;26.15;16.45;;;;;;;7.17;100.00;102503.88;5068856;28;20112;-69
2022/03/16 00:47:49;;;;;;;29.30;16.10;;;;;;;7.23;100.00;102499.00;5071318;28;20029;-69
2022/03/16 00:50:15;;;;;;;32.40;18.00;;;;;;;7.22;100.00;102492.88;5060788;28;20024;-69
2022/03/16 00:52:40;;;;;;;28.65;17.45;;;;;;;7.22;100.00;102491.97;5063461;28;20067;-69
2022/03/16 00:55:06;;;;;;;34.83;17.95;;;;;;;7.20;100.00;102497.13;5061407;28;20044;-69
2022/03/16 00:57:32;;;;;;;23.42;16.40;;;;;;;7.23;100.00;102499.00;5061107;28;20025;-69
2022/03/16 00:59:58;;;;;;;26.20;17.05;;;;;;;7.28;100.00;102497.53;5066634;28;20108;-69
2022/03/16 01:02:24;;;;;;;30.10;17.77;;;;;;;7.26;100.00;102496.56;5068821;28;20032;-69
2022/03/16 01:04:49;;;;;;;29.42;17.10;;;;;;;7.23;100.00;102499.91;5072393;28;20032;-69
2022/03/16 01:07:15;;;;;;;25.35;16.95;;;;;;;7.21;100.00;102500.63;5067635;28;20056;-69
2022/03/16 01:09:40;;;;;;;24.70;16.15;;;;;;;7.20;100.00;102498.81;5062837;28;20032;-69
2022/03/16 01:12:07;;;;;;;25.13;16.90;;;;;;;7.18;100.00;102495.22;5064375;28;20029;-69
2022/03/16 01:14:33;;;;;;;26.98;17.50;;;;;;;7.16;100.00;102484.69;5071511;28;20107;-69
2022/03/16 01:16:58;;;;;;;24.02;17.02;;;;;;;7.09;100.00;102490.34;5073845;28;20186;-69
2022/03/16 01:19:23;;;;;;;27.02;16.60;;;;;;;7.08;100.00;102488.53;5068500;28;20029;-69
2022/03/16 01:21:49;;;;;;;26.52;16.70;;;;;;;7.03;100.00;102484.78;5049468;28;20023;-69
2022/03/16 01:24:14;;;;;;;27.65;15.77;;;;;;;7.00;100.00;102475.03;5061198;28;20032;-69
2022/03/16 01:26:40;;;;;;;27.02;17.85;;;;;;;6.97;100.00;102480.06;5065140;28;20115;-69
2022/03/16 01:29:05;;;;;;;26.58;17.48;;;;;;;6.92;100.00;102477.19;5063271;28;20040;-69
2022/03/16 01:31:31;;;;;;;32.08;18.52;;;;;;;6.97;100.00;102480.06;5063156;28;20078;-69
2022/03/16 01:33:56;;;;;;;27.15;17.23;;;;;;;6.92;100.00;102484.16;5068588;28;20033;-69
2022/03/16 01:36:21;;;;;;;27.05;17.00;;;;;;;6.97;100.00;102476.56;5070482;28;20024;-69
2022/03/16 01:38:47;;;;;;;32.15;19.35;;;;;;;6.97;100.00;102480.06;5066298;28;20016;-69
2022/03/16 01:41:13;;;;;;;23.55;17.27;;;;;;;6.96;100.00;102478.28;5040480;28;20047;-69
2022/03/16 01:43:39;;;;;;;27.40;18.45;;;;;;;6.89;100.00;102481.34;5061987;28;20346;-68
2022/03/16 01:46:04;;;;;;;27.98;18.02;;;;;;;6.94;100.00;102482.53;5064408;28;20108;-68
2022/03/16 01:48:30;;;;;;;30.30;18.15;;;;;;;6.80;100.00;102478.22;5070229;28;20131;-68
2022/03/16 01:50:55;;;;;;;33.78;19.67;;;;;;;6.71;100.00;102471.59;5057461;28;20424;-68
2022/03/16 01:53:20;;;;;;;30.45;19.00;;;;;;;6.75;100.00;102485.78;5057403;28;20067;-70
2022/03/16 01:55:47;;;;;;;34.53;19.27;;;;;;;6.70;100.00;102482.91;5062039;28;20078;-68
2022/03/16 01:58:13;;;;;;;29.50;20.35;;;;;;;6.71;100.00;102474.22;5064738;28;20021;-68
2022/03/16 02:00:41;;;;;;;32.40;19.35;;;;;;;6.74;100.00;102469.19;5041459;28;20431;-68
2022/03/16 02:03:07;;;;;;;34.42;20.58;;;;;;;6.72;100.00;102465.56;5060345;28;20021;-68
2022/03/16 02:05:33;;;;;;;33.92;19.50;;;;;;;6.71;100.00;102473.34;5061692;28;20075;-68
2022/03/16 02:07:59;;;;;;;33.03;20.08;;;;;;;6.73;100.00;102466.50;5056822;28;20106;-68
2022/03/16 02:10:24;;;;;;;34.30;19.63;;;;;;;6.70;100.00;102476.75;5068837;28;20020;-68
2022/03/16 02:12:52;;;;;;;30.17;18.85;;;;;;;6.62;100.00;102471.09;5053403;28;20039;-68
2022/03/16 02:15:21;;;;;;;33.28;20.75;;;;;;;6.57;100.00;102472.53;5066342;28;20036;-68
2022/03/16 02:17:50;;;;;;;32.70;19.88;;;;;;;6.54;100.00;102469.75;5062697;28;20025;-68
2022/03/16 02:20:16;;;;;;;36.03;20.58;;;;;;;6.56;100.00;102461.16;5056640;28;20028;-68
2022/03/16 02:23:01;;;;;;;35.35;21.52;;;;;;;6.60;100.00;102451.78;5053861;28;20496;-69
2022/03/16 02:25:27;;;;;;;38.80;20.35;;;;;;;6.51;100.00;102446.91;5056202;28;20037;-68
2022/03/16 02:27:53;;;;;;;33.67;21.33;;;;;;;6.56;100.00;102441.94;5064218;28;20025;-68
2022/03/16 02:30:24;;;;;;;36.05;20.75;;;;;;;6.44;100.00;102436.88;5055080;28;20051;-68
2022/03/16 02:32:50;;;;;;;31.33;20.60;;;;;;;6.32;100.00;102438.78;5060656;28;20796;-68
2022/03/16 02:35:15;;;;;;;33.65;19.92;;;;;;;6.27;100.00;102434.97;5067417;28;20032;-68
2022/03/16 02:37:41;;;;;;;37.95;21.95;;;;;;;6.22;100.00;102438.22;5058125;28;20025;-69
2022/03/16 02:40:09;;;;;;;38.55;21.75;;;;;;;6.25;100.00;102442.75;5061814;28;20041;-69
2022/03/16 02:42:35;;;;;;;39.70;23.23;;;;;;;6.16;100.00;102436.94;5064445;28;20021;-69
2022/03/16 02:45:00;;;;;;;42.25;23.92;;;;;;;6.16;100.00;102444.78;5067596;28;20542;-69
2022/03/16 02:47:27;;;;;;;42.70;24.70;;;;;;;6.17;100.00;102442.28;5060863;28;20404;-69
2022/03/16 02:49:53;;;;;;;38.70;24.17;;;;;;;6.14;100.00;102442.09;5058957;28;20541;-68
2022/03/16 02:52:18;;;;;;;42.60;26.50;;;;;;;6.14;100.00;102451.66;5061341;28;20056;-68
2022/03/16 02:54:44;;;;;;;42.33;24.17;;;;;;;6.12;100.00;102455.88;5062800;28;20102;-69
2022/03/16 02:57:09;;;;;;;41.58;25.73;;;;;;;6.16;100.00;102450.03;5044138;28;20020;-68
2022/03/16 02:59:36;;;;;;;47.40;26.65;;;;;;;6.17;100.00;102447.53;5063553;28;20048;-69
2022/03/16 03:02:01;;;;;;;50.20;28.40;;;;;;;6.13;100.00;102442.00;5044768;28;20070;-69
2022/03/16 03:04:27;;;;;;;49.47;28.17;;;;;;;6.15;100.00;102441.28;5056621;28;20486;-69
2022/03/16 03:06:52;;;;;;;47.42;27.40;;;;;;;6.17;100.00;102438.75;5057239;28;20040;-69
2022/03/16 03:09:17;;;;;;;49.63;28.05;;;;;;;6.17;100.00;102438.75;5066480;28;20032;-69
2022/03/16 03:11:43;;;;;;;49.60;27.85;;;;;;;6.16;100.00;102437.88;5055821;28;20040;-69
2022/03/16 03:14:08;;;;;;;45.78;27.63;;;;;;;6.14;100.00;102438.59;5065805;28;20020;-69
2022/03/16 03:16:33;;;;;;;47.83;27.35;;;;;;;6.15;100.00;102441.28;5060760;28;20115;-69
2022/03/16 03:18:59;;;;;;;41.47;25.75;;;;;;;6.09;100.00;102427.88;5059903;28;20028;-69
2022/03/16 03:21:24;;;;;;;46.47;27.00;;;;;;;6.08;100.00;102428.66;5065968;28;20032;-69
2022/03/16 03:23:49;;;;;;;46.85;27.33;;;;;;;6.04;100.00;102427.56;5064987;28;20609;-68
2022/03/16 03:26:15;;;;;;;46.50;27.95;;;;;;;5.95;100.00;102426.97;5062112;28;20028;-68
2022/03/16 03:28:40;;;;;;;48.92;26.55;;;;;;;5.96;100.00;102422.66;5052551;28;20040;-68
2022/03/16 03:31:05;;;;;;;46.63;27.95;;;;;;;5.90;100.00;102420.56;5064470;28;20028;-69
2022/03/16 03:33:31;;;;;;;45.78;27.70;;;;;;;5.80;100.00;102418.22;5063493;28;20163;-69
2022/03/16 03:35:56;;;;;;;46.30;28.33;;;;;;;5.79;100.00;102417.28;5064363;28;20376;-69
2022/03/16 03:38:21;;;;;;;48.45;28.90;;;;;;;5.81;100.00;102422.63;5059301;28;20140;-69
2022/03/16 03:40:47;;;;;;;55.03;28.55;;;;;;;5.72;100.00;102418.66;5060929;28;20051;-69
2022/03/16 03:43:13;;;;;;;48.17;27.90;;;;;;;5.51;100.00;102415.59;5073753;28;20055;-69
2022/03/16 03:45:38;;;;;;;44.65;27.70;;;;;;;5.48;100.00;102412.81;5065464;28;20028;-69
2022/03/16 03:48:04;;;;;;;48.17;28.48;;;;;;;5.55;100.00;102414.09;5065450;28;20055;-69
2022/03/16 03:50:29;;;;;;;56.10;29.75;;;;;;;5.52;100.00;102411.25;5057794;28;20035;-69
2022/03/16 03:52:55;;;;;;;49.22;28.38;;;;;;;5.44;100.00;102421.25;5058375;28;20055;-69
2022/03/16 03:55:20;;;;;;;45.28;27.42;;;;;;;5.45;100.00;102416.91;5062484;28;20037;-69
2022/03/16 03:57:45;;;;;;;46.53;28.20;;;;;;;5.50;100.00;102420.72;5058778;28;20482;-69
2022/03/16 04:00:11;;;;;;;44.33;27.35;;;;;;;5.48;100.00;102427.53;5058509;28;20491;-70
2022/03/16 04:02:36;;;;;;;47.65;27.73;;;;;;;5.48;100.00;102422.31;5056396;28;20465;-69
2022/03/16 04:05:03;;;;;;;44.35;26.67;;;;;;;5.49;100.00;102424.13;5054906;28;20021;-69
2022/03/16 04:07:29;;;;;;;49.90;28.30;;;;;;;5.46;100.00;102413.50;5043278;28;20037;-70
2022/03/16 04:09:54;;;;;;;49.20;27.67;;;;;;;5.46;100.00;102411.78;5069950;28;20031;-69
2022/03/16 04:12:20;;;;;;;43.30;25.98;;;;;;;5.45;100.00;102411.69;5053729;28;20067;-69
2022/03/16 04:14:45;;;;;;;43.42;25.63;;;;;;;5.46;100.00;102413.50;5046594;28;20028;-69
2022/03/16 04:17:10;;;;;;;44.38;25.88;;;;;;;5.46;100.00;102414.41;5055713;28;20728;-69
2022/03/16 04:19:36;;;;;;;40.78;24.95;;;;;;;5.48;100.00;102415.41;5057760;28;20025;-70
2022/03/16 04:22:01;;;;;;;42.90;25.10;;;;;;;5.44;100.00;102420.31;5066261;28;20025;-69
2022/03/16 04:24:26;;;;;;;40.53;23.98;;;;;;;5.44;100.00;102420.31;5058576;28;20516;-69
2022/03/16 04:26:52;;;;;;;40.47;23.25;;;;;;;5.44;100.00;102422.94;5059708;28;20032;-69
2022/03/16 04:29:17;;;;;;;38.40;23.45;;;;;;;5.44;100.00;102423.84;5061186;28;20513;-69
2022/03/16 04:31:43;;;;;;;39.80;23.67;;;;;;;5.46;100.00;102423.94;5045512;28;20024;-69
2022/03/16 04:34:08;;;;;;;38.97;24.40;;;;;;;5.46;100.00;102423.94;5070489;28;20074;-69
2022/03/16 04:36:33;;;;;;;41.97;22.90;;;;;;;5.45;100.00;102416.91;5066214;28;20039;-70
2022/03/16 04:38:59;;;;;;;34.72;21.73;;;;;;;5.47;100.00;102421.44;5069458;28;20036;-69
2022/03/16 04:41:24;;;;;;;33.67;20.48;;;;;;;5.52;100.00;102421.69;5055455;28;20025;-69
2022/03/16 04:43:49;;;;;;;35.83;20.92;;;;;;;5.52;100.00;102427.84;5069385;28;20027;-69
2022/03/16 04:46:15;;;;;;;36.88;21.80;;;;;;;5.51;100.00;102417.31;5060653;28;20477;-69
2022/03/16 04:48:40;;;;;;;31.92;20.50;;;;;;;5.53;100.00;102411.34;5063481;28;20154;-69
2022/03/16 04:51:06;;;;;;;32.45;20.83;;;;;;;5.56;100.00;102410.66;5068458;28;20032;-70
2022/03/16 04:53:32;;;;;;;33.65;21.02;;;;;;;5.57;100.00;102412.44;5069719;28;20033;-69
2022/03/16 04:55:57;;;;;;;32.92;20.98;;;;;;;5.57;100.00;102396.78;5058470;28;20025;-70
2022/03/16 04:58:22;;;;;;;34.60;20.80;;;;;;;5.58;100.00;102406.44;5071408;28;20078;-71
2022/03/16 05:00:48;;;;;;;35.78;22.83;;;;;;;5.54;100.00;102401.84;5049320;28;20021;-69
2022/03/16 05:03:13;;;;;;;36.28;21.40;;;;;;;5.56;100.00;102394.97;5050083;28;20464;-69
2022/03/16 05:05:39;;;;;;;35.30;23.25;;;;;;;5.51;100.00;102402.53;5060779;28;20025;-69
2022/03/16 05:08:04;;;;;;;40.38;23.45;;;;;;;5.50;100.00;102402.44;5043510;28;20061;-69
2022/03/16 05:10:31;;;;;;;35.13;22.52;;;;;;;5.48;100.00;102406.66;5071635;28;20043;-69
2022/03/16 05:12:56;;;;;;;35.20;22.55;;;;;;;5.47;100.00;102400.53;5058149;28;20123;-69
2022/03/16 05:15:22;;;;;;;39.10;23.58;;;;;;;5.48;100.00;102401.44;5062462;28;20111;-69
2022/03/16 05:17:47;;;;;;;38.35;23.08;;;;;;;5.46;100.00;102400.44;5048903;28;20032;-69
2022/03/16 05:20:14;;;;;;;40.53;23.65;;;;;;;5.47;100.00;102403.16;5061389;28;20067;-69
2022/03/16 05:22:47;;;;;;;35.45;21.67;;;;;;;5.47;100.00;102399.66;5059206;28;20025;-69
2022/03/16 05:25:15;;;;;;;35.88;24.17;;;;;;;5.46;100.00;102397.84;5056287;28;20112;-68
2022/03/16 05:27:40;;;;;;;37.75;24.30;;;;;;;5.46;100.00;102392.63;5059902;28;20112;-68
2022/03/16 05:30:08;;;;;;;34.30;22.67;;;;;;;5.40;100.00;102404.47;5069686;28;20055;-68
2022/03/16 05:32:33;;;;;;;35.65;24.80;;;;;;;5.35;100.00;102400.66;5049380;28;20024;-70
2022/03/16 05:34:59;;;;;;;37.67;24.70;;;;;;;5.35;100.00;102394.56;5072270;28;20036;-70
2022/03/16 05:37:24;;;;;;;41.00;24.45;;;;;;;5.37;100.00;102400.75;5067537;28;20035;-70
2022/03/16 05:39:49;;;;;;;38.40;23.75;;;;;;;5.37;100.00;102398.16;5065068;28;20056;-68
2022/03/16 05:42:15;;;;;;;37.30;22.98;;;;;;;5.34;100.00;102392.75;5062960;28;20024;-68
2022/03/16 05:44:40;;;;;;;42.88;25.92;;;;;;;5.32;100.00;102394.38;5064658;28;20101;-69
2022/03/16 05:47:06;;;;;;;40.60;24.92;;;;;;;5.31;100.00;102403.00;5073313;28;20153;-68
2022/03/16 05:49:31;;;;;;;43.47;25.35;;;;;;;5.28;100.00;102403.72;5061284;28;20107;-69
2022/03/16 05:51:56;;;;;;;39.83;25.90;;;;;;;5.24;100.00;102394.78;5072134;28;20031;-68
2022/03/16 05:54:22;;;;;;;42.97;26.92;;;;;;;5.25;100.00;102398.31;5052295;28;20436;-68
2022/03/16 05:56:47;;;;;;;40.65;25.13;;;;;;;5.26;100.00;102401.81;5048644;28;20027;-68
2022/03/16 05:59:13;;;;;;;38.47;25.00;;;;;;;5.26;100.00;102409.63;5068653;28;20020;-68
2022/03/16 06:01:38;;;;;;;38.78;25.13;;;;;;;5.22;100.00;102403.31;5063398;28;20024;-68
2022/03/16 06:04:04;;;;;;;41.88;26.17;;;;;;;5.25;100.00;102408.75;5059692;28;20031;-68
2022/03/16 06:06:30;;;;;;;42.13;24.67;;;;;;;5.28;100.00;102408.94;5067541;28;20025;-68
2022/03/16 06:08:56;;;;;;;37.97;23.42;;;;;;;5.31;100.00;102403.88;5061250;28;20147;-68
2022/03/16 06:11:21;;;;;;;40.90;24.85;;;;;;;5.34;100.00;102397.97;5064435;28;20063;-68
2022/03/16 06:13:47;;;;;;;40.20;22.80;;;;;;;5.38;100.00;102390.41;5050061;28;20024;-68
2022/03/16 06:16:12;;;;;;;36.53;22.98;;;;;;;5.42;100.00;102395.84;5068227;28;20016;-68
2022/03/16 06:18:37;;;;;;;36.13;22.73;;;;;;;5.44;100.00;102394.22;5056807;28;20025;-69
2022/03/16 06:21:03;;;;;;;39.63;24.83;;;;;;;5.48;100.00;102406.66;5064578;28;20024;-69
2022/03/16 06:23:28;;;;;;;40.10;24.92;;;;;;;5.50;100.00;102399.84;5064199;28;20099;-69
2022/03/16 06:25:53;;;;;;;37.50;23.40;;;;;;;5.51;100.00;102396.44;5057003;28;20477;-69
2022/03/16 06:28:19;;;;;;;33.40;22.00;;;;;;;5.52;100.00;102396.50;5062858;28;20365;-68
2022/03/16 06:30:44;;;;;;;36.15;23.10;;;;;;;5.53;100.00;102400.00;5067591;28;20034;-69
2022/03/16 06:33:09;;;;;;;34.83;22.85;;;;;;;5.60;100.00;102396.97;5060584;28;20122;-68
2022/03/16 06:35:35;;;;;;;38.03;22.75;;;;;;;5.57;100.00;102407.22;5064951;28;20508;-69
2022/03/16 06:38:00;;;;;;;32.97;22.80;;;;;;;5.58;100.00;102399.50;5059584;28;20047;-68
2022/03/16 06:40:25;;;;;;;31.70;21.05;;;;;;;5.59;100.00;102403.03;5063067;28;20051;-67
2022/03/16 06:42:56;;;;;;;35.72;22.60;;;;;;;5.62;100.00;102404.94;5060281;28;20032;-67
2022/03/16 06:45:23;;;;;;;34.22;22.40;;;;;;;5.66;100.00;102397.38;5063922;28;20107;-70
2022/03/16 06:47:48;;;;;;;35.50;22.08;;;;;;;5.67;100.00;102398.25;5063056;28;20016;-71
2022/03/16 06:50:14;;;;;;;39.47;22.58;;;;;;;5.66;100.00;102392.13;5063256;28;20087;-71
2022/03/16 06:52:40;;;;;;;30.60;20.58;;;;;;;5.74;100.00;102396.13;5065385;28;20465;-71
2022/03/16 06:55:09;;;;;;;29.27;20.75;;;;;;;5.77;100.00;102394.53;5047939;28;20461;-70
2022/03/16 06:57:35;;;;;;;33.10;21.17;;;;;;;5.80;100.00;102389.47;5063854;28;20037;-71
2022/03/16 07:00:03;;;;;;;31.63;20.52;;;;;;;5.84;100.00;102383.63;5059517;28;20027;-72
2022/03/16 07:02:28;;;;;;;33.80;20.48;;;;;;;5.89;100.00;102384.81;5066999;28;20036;-71
2022/03/16 07:04:53;;;;;;;66.35;22.58;;;;;;;5.93;100.00;102391.09;5065105;28;20048;-72
2022/03/16 07:07:19;;;;;;;33.08;19.83;;;;;;;5.96;100.00;102386.09;5065494;28;20055;-72
2022/03/16 07:09:44;;;;;;;31.88;19.33;;;;;;;5.97;100.00;102385.25;5071361;28;20028;-71
2022/03/16 07:12:10;;;;;;;28.02;18.83;;;;;;;6.03;100.00;102383.06;5050109;28;20067;-70
2022/03/16 07:14:35;;;;;;;27.17;18.08;;;;;;;6.08;100.00;102387.75;5061317;28;20033;-71
2022/03/16 07:17:02;;;;;;;30.33;17.92;;;;;;;6.15;100.00;102401.19;5050884;28;20048;-71
2022/03/16 07:19:28;;;;;;;26.85;17.63;;;;;;;6.20;100.00;102405.88;5053356;28;20107;-71
2022/03/16 07:21:56;;;;;;;28.27;17.85;;;;;;;6.26;100.00;102402.72;5068183;28;20028;-71
2022/03/16 07:24:22;;;;;;;26.95;17.35;;;;;;;6.32;100.00;102408.31;5066493;28;20016;-71
2022/03/16 07:26:48;;;;;;;31.35;17.73;;;;;;;6.38;100.00;102408.66;5048899;28;20361;-71
2022/03/16 07:29:13;;;;;;;32.97;18.77;;;;;;;6.45;100.00;102402.09;5063174;28;20029;-71
2022/03/16 07:31:38;;;;;;;27.27;17.45;;;;;;;6.51;100.00;102404.16;5049218;28;20410;-72
2022/03/16 07:34:04;;;;;;;26.70;16.85;;;;;;;6.53;100.00;102397.31;5071695;28;20517;-71
2022/03/16 07:36:31;;;;;;;27.63;17.77;;;;;;;6.56;100.00;102393.16;5070836;28;20025;-72
2022/03/16 07:38:57;;;;;;;26.38;17.55;;;;;;;6.60;100.00;102390.72;5055642;28;20103;-72
2022/03/16 07:41:22;;;;;;;28.33;17.35;;;;;;;6.58;100.00;102375.84;5053402;28;20570;-72
2022/03/16 07:43:47;;;;;;;28.98;17.58;;;;;;;6.64;100.00;102387.47;5054221;28;20016;-72
2022/03/16 07:46:13;;;;;;;28.02;17.33;;;;;;;6.69;100.00;102383.41;5070672;28;20039;-72
2022/03/16 07:48:40;;;;;;;26.30;16.55;;;;;;;6.69;100.00;102373.84;5053447;28;20055;-72
2022/03/16 07:51:06;;;;;;;30.67;16.38;;;;;;;6.75;100.00;102373.28;5056285;28;20487;-72
2022/03/16 07:53:31;;;;;;;25.80;15.82;;;;;;;6.81;100.00;102364.88;5063022;28;20128;-73
2022/03/16 07:55:57;;;;;;;26.25;15.43;;;;;;;6.85;100.00;102359.91;5075747;28;20029;-72
2022/03/16 07:58:23;;;;;;;23.83;15.77;;;;;;;6.90;100.00;102366.31;5059286;28;20495;-71
2022/03/16 08:00:49;;;;;;;23.55;15.27;;;;;;;6.99;100.00;102372.88;5068561;28;20460;-71
2022/03/16 08:03:14;;;;;;;23.33;15.13;;;;;;;7.09;100.00;102378.72;5049312;28;20039;-71
2022/03/16 08:05:40;;;;;;;23.65;15.75;;;;;;;7.19;100.00;102381.81;5065719;28;20023;-71
2022/03/16 08:08:05;;;;;;;23.23;14.63;;;;;;;7.19;100.00;102380.13;5059366;28;20032;-71
2022/03/16 08:10:31;;;;;;;21.30;13.70;;;;;;;7.28;100.00;102378.81;5059262;28;20145;-71
2022/03/16 08:12:56;;;;;;;22.00;14.70;;;;;;;7.33;100.00;102388.72;5071169;28;20029;-71
2022/03/16 08:15:22;;;;;;;20.45;14.27;;;;;;;7.36;100.00;102388.88;5055423;28;20546;-71
2022/03/16 08:17:47;;;;;;;19.35;13.55;;;;;;;7.37;100.00;102385.47;5049197;28;20032;-71
2022/03/16 08:20:13;;;;;;;21.70;15.23;;;;;;;7.37;100.00;102381.94;5056853;28;20407;-71
2022/03/16 08:22:38;;;;;;;22.95;14.10;;;;;;;7.40;100.00;102379.50;5069948;28;20480;-71
2022/03/16 08:25:07;;;;;;;26.38;13.88;;;;;;;7.45;100.00;102395.44;5065734;28;20071;-70
2022/03/16 08:27:33;;;;;;;21.27;14.70;;;;;;;7.50;100.00;102383.50;5057107;28;20025;-69
2022/03/16 08:29:58;;;;;;;18.13;13.05;;;;;;;7.55;100.00;102387.28;5052446;28;20032;-69
2022/03/16 08:32:24;;;;;;;21.63;14.30;;;;;;;7.58;100.00;102388.34;5069549;28;20457;-71
2022/03/16 08:34:50;;;;;;;20.42;12.75;;;;;;;7.67;99.44;102387.94;5065646;28;20024;-70
2022/03/16 08:37:17;;;;;;;25.50;12.63;;;;;;;7.72;99.19;102381.22;5068645;28;20070;-71
2022/03/16 08:39:44;;;;;;;19.00;13.38;;;;;;;7.78;99.46;102369.28;5052918;28;20037;-71
2022/03/16 08:42:11;;;;;;;25.58;11.90;;;;;;;7.92;98.35;102368.25;5053831;28;20021;-71
2022/03/16 08:44:36;;;;;;;17.30;12.80;;;;;;;7.93;98.57;102357.88;5056494;28;20059;-71
2022/03/16 08:47:02;;;;;;;19.30;12.98;;;;;;;7.97;97.63;102345.81;5071440;28;20048;-69
2022/03/16 08:49:29;;;;;;;19.95;12.45;;;;;;;8.04;97.56;102337.41;5058852;28;20416;-71
2022/03/16 08:51:55;;;;;;;17.75;12.57;;;;;;;8.13;96.94;102341.38;5064623;28;20349;-70
2022/03/16 08:54:21;;;;;;;22.35;12.05;;;;;;;8.17;96.80;102332.81;5060771;28;20041;-69
2022/03/16 08:56:46;;;;;;;23.85;11.95;;;;;;;8.22;96.63;102329.59;5049425;28;20059;-71
2022/03/16 08:59:11;;;;;;;22.23;11.35;;;;;;;8.37;96.58;102326.84;5066873;28;20039;-70
2022/03/16 09:01:37;;;;;;;16.65;11.25;;;;;;;8.55;95.59;102331.25;5072690;28;20031;-71
2022/03/16 09:04:03;;;;;;;18.85;11.60;;;;;;;8.68;95.01;102333.63;5049746;28;20451;-70
2022/03/16 09:06:29;;;;;;;17.15;11.00;;;;;;;8.83;93.68;102328.22;5059861;28;20153;-71
2022/03/16 09:08:54;;;;;;;12.43;10.13;;;;;;;9.03;92.55;102329.13;5062504;28;20021;-71
2022/03/16 09:11:20;;;;;;;14.02;10.40;;;;;;;9.20;91.07;102323.78;5073706;28;20098;-71
2022/03/16 09:13:47;;;;;;;17.58;9.95;;;;;;;9.37;89.61;102317.59;5062496;28;20105;-72
2022/03/16 09:16:13;;;;;;;16.83;9.38;;;;;;;9.51;88.11;102338.31;5063591;28;20107;-72
2022/03/16 09:18:38;;;;;;;13.73;10.05;;;;;;;9.59;86.86;102337.84;5068194;28;20108;-72
2022/03/16 09:21:03;;;;;;;16.38;9.77;;;;;;;9.64;86.92;102319.63;5057582;28;20028;-70
2022/03/16 09:23:31;;;;;;;13.27;9.68;;;;;;;9.82;86.47;102329.16;5045533;28;20381;-72
2022/03/16 09:26:00;;;;;;;15.05;9.85;;;;;;;9.90;85.99;102325.13;5058041;28;20064;-72
2022/03/16 09:28:25;;;;;;;15.50;9.45;;;;;;;10.17;87.04;102328.03;5066392;28;20369;-72
2022/03/16 09:30:51;;;;;;;12.93;9.77;;;;;;;10.46;86.67;102326.66;5070820;28;20032;-72
2022/03/16 09:33:17;;;;;;;15.68;9.75;;;;;;;10.57;82.81;102315.69;5069532;28;20108;-72
2022/03/16 09:35:43;;;;;;;40.17;11.73;;;;;;;10.71;82.14;102319.75;5072295;28;20149;-72
2022/03/16 09:38:08;;;;;;;12.57;9.23;;;;;;;10.78;83.38;102319.16;5057496;28;20042;-70
2022/03/16 09:40:36;;;;;;;30.70;12.07;;;;;;;11.10;81.71;102313.34;5056986;28;20085;-71
2022/03/16 09:43:06;;;;;;;22.77;11.10;;;;;;;11.45;80.76;102312.03;5053587;28;20104;-71
2022/03/16 09:45:54;;;;;;;19.73;10.20;;;;;;;11.55;78.20;102315.00;5071127;28;20029;-70
2022/03/16 09:48:21;;;;;;;27.02;12.00;;;;;;;11.81;78.69;102316.84;5067452;28;20040;-71
2022/03/16 09:50:47;;;;;;;26.70;11.77;;;;;;;12.00;77.59;102311.31;5071852;28;20029;-71
2022/03/16 09:53:15;;;;;;;41.15;11.80;;;;;;;12.18;76.22;102300.50;5073096;28;20033;-70
2022/03/16 09:55:40;;;;;;;31.60;11.98;;;;;;;12.31;75.62;102297.41;5075503;28;20023;-71
2022/03/16 09:58:05;;;;;;;20.98;10.32;;;;;;;12.27;75.61;102301.69;5071731;28;20024;-71
2022/03/16 10:00:31;;;;;;;22.88;10.30;;;;;;;12.11;76.95;102308.22;5077231;28;20016;-71
2022/03/16 10:03:02;;;;;;;24.63;11.52;;;;;;;12.00;76.79;102316.59;5071669;28;20100;-72
2022/03/16 10:05:29;;;;;;;16.92;9.60;;;;;;;11.86;77.35;102318.72;5073411;28;20016;-72
2022/03/16 10:07:54;;;;;;;17.70;8.82;;;;;;;11.75;78.38;102308.69;5068645;28;20153;-71
2022/03/16 10:13:21;;;;;;;12.27;9.68;;;;;;;11.91;77.96;102303.94;5070837;28;20094;-72
2022/03/16 10:15:48;;;;;;;13.88;9.07;;;;;;;11.98;77.79;102303.38;5066319;28;20548;-71
2022/03/16 10:18:16;;;;;;;10.13;8.38;;;;;;;12.13;77.67;102305.63;5075247;28;20059;-70
2022/03/16 10:20:43;;;;;;;14.80;9.90;;;;;;;12.27;77.00;102298.16;5063919;28;20024;-69
2022/03/16 10:23:09;;;;;;;61.10;11.82;;;;;;;12.67;76.40;102298.53;5065972;28;20396;-69
2022/03/16 10:25:38;;;;;;;29.35;9.25;;;;;;;12.88;75.16;102295.69;5067245;28;20020;-68
2022/03/16 10:28:11;;;;;;;17.45;9.23;;;;;;;13.03;74.41;102290.84;5064949;28;20028;-68
2022/03/16 10:30:49;;;;;;;36.45;11.35;;;;;;;13.04;75.31;102292.63;5069304;28;20033;-69
2022/03/16 10:33:16;;;;;;;14.55;9.13;;;;;;;13.31;74.29;102291.66;5065384;28;20028;-71
2022/03/16 10:36:15;;;;;;;16.08;8.27;;;;;;;13.35;72.96;102293.53;5069843;28;20032;-69
2022/03/16 10:38:51;;;;;;;11.82;8.57;;;;;;;13.35;73.32;102298.81;5011131;28;20130;-70
2022/03/16 10:47:20;;;;;;;12.13;9.00;;;;;;;14.02;71.92;102275.06;5070547;28;20098;-70
2022/03/16 10:49:48;;;;;;;69.65;11.93;;;;;;;14.19;70.70;102269.28;5062501;28;20027;-71
2022/03/16 10:52:19;;;;;;;15.00;9.38;;;;;;;13.81;70.87;102271.00;5070088;28;20075;-71
2022/03/16 10:54:47;;;;;;;16.48;10.05;;;;;;;13.77;71.52;102269.16;5070458;28;20044;-70
2022/03/16 10:57:13;;;;;;;19.02;9.90;;;;;;;14.05;71.14;102274.25;5060058;28;20075;-70
2022/03/16 10:59:42;;;;;;;23.60;9.10;;;;;;;14.70;69.59;102274.06;5062156;28;20488;-70
2022/03/16 11:02:14;;;;;;;10.57;8.48;;;;;;;15.15;67.53;102273.28;5062343;28;20059;-70
2022/03/16 11:04:42;;;;;;;13.25;9.68;;;;;;;15.60;66.31;102275.88;5065013;28;20028;-71
2022/03/16 11:07:07;;;;;;;20.92;9.27;;;;;;;15.80;64.06;102261.28;5068950;28;20036;-71
2022/03/16 11:09:34;;;;;;;86.80;14.20;;;;;;;15.44;64.69;102270.31;5067295;28;20376;-70
2022/03/16 11:14:48;;;;;;;33.72;10.38;;;;;;;14.77;67.27;102272.44;5068903;28;20121;-71
2022/03/16 11:17:14;;;;;;;18.90;9.00;;;;;;;14.95;66.22;102270.19;5066287;28;20163;-71
2022/03/16 11:19:44;;;;;;;11.95;8.43;;;;;;;15.46;66.32;102279.22;5052115;28;20129;-71